createdAt,value
2023-02-02T00:00:39.589Z,77.67
2023-02-02T00:03:01.164Z,77.82
2023-02-02T00:05:23.009Z,77.65
2023-02-02T00:07:44.786Z,77.92
2023-02-02T00:10:06.928Z,77.77
2023-02-02T00:12:28.547Z,77.49
2023-02-02T00:14:50.129Z,77.45
2023-02-02T00:17:11.751Z,77.39
2023-02-02T00:19:33.593Z,76.88
2023-02-02T00:21:56.243Z,76.69
2023-02-02T00:24:19.120Z,76.83
2023-02-02T00:26:45.875Z,77.14
2023-02-02T00:29:14.609Z,77.03
2023-02-02T00:31:36.356Z,76.61
2023-02-02T00:33:57.992Z,76.78
2023-02-02T00:36:21.774Z,76.98
2023-02-02T00:38:43.812Z,76.85
2023-02-02T00:41:05.957Z,76.98
2023-02-02T00:43:27.521Z,76.76
2023-02-02T00:45:50.021Z,76.56
2023-02-02T00:48:11.645Z,76.50
2023-02-02T00:50:33.391Z,76.48
2023-02-02T00:52:58.929Z,76.86
2023-02-02T00:55:22.235Z,77.03
2023-02-02T00:57:44.600Z,77.03
2023-02-02T01:00:11.336Z,77.49
2023-02-02T01:02:35.305Z,77.86
2023-02-02T01:04:56.915Z,78.06
2023-02-02T01:07:18.609Z,78.55
2023-02-02T01:09:40.233Z,78.36
2023-02-02T01:12:01.924Z,78.24
2023-02-02T01:14:23.573Z,78.56
2023-02-02T01:16:45.350Z,78.92
2023-02-02T01:19:06.982Z,79.05
2023-02-02T01:21:28.697Z,79.13
2023-02-02T01:23:50.438Z,79.10
2023-02-02T01:26:14.524Z,79.07
2023-02-02T01:28:36.833Z,78.71
2023-02-02T01:30:58.830Z,78.43
2023-02-02T01:33:21.625Z,78.38
2023-02-02T01:35:56.083Z,78.45
2023-02-02T01:38:19.228Z,78.66
2023-02-02T01:40:54.255Z,78.54
2023-02-02T01:43:50.265Z,78.20
2023-02-02T01:46:17.748Z,78.26
2023-02-02T01:48:44.187Z,77.79
2023-02-02T01:51:17.313Z,77.77
2023-02-02T01:53:39.209Z,77.36
2023-02-02T01:56:05.396Z,77.70
2023-02-02T01:58:35.356Z,77.62
2023-02-02T02:00:57.326Z,76.98
2023-02-02T02:03:24.097Z,76.82
2023-02-02T02:06:05.726Z,76.67
2023-02-02T02:08:35.759Z,76.88
2023-02-02T02:10:58.211Z,76.87
2023-02-02T02:13:43.853Z,76.88
2023-02-02T02:16:22.921Z,76.50
2023-02-02T02:19:19.296Z,76.44
2023-02-02T02:22:32.444Z,76.47
2023-02-02T02:25:59.188Z,76.25
2023-02-02T02:29:06.454Z,76.38
2023-02-02T02:31:31.683Z,76.57
2023-02-02T02:34:02.415Z,76.53
2023-02-02T02:37:04.001Z,76.55
2023-02-02T02:39:39.240Z,76.73
2023-02-02T02:42:15.771Z,76.26
2023-02-02T02:44:37.713Z,76.23
2023-02-02T02:47:01.114Z,76.57
2023-02-02T02:49:23.516Z,76.07
2023-02-02T02:51:51.565Z,76.50
2023-02-02T02:54:35.473Z,76.51
2023-02-02T02:57:28.947Z,75.92
2023-02-02T03:00:30.671Z,76.15
2023-02-02T03:03:03.724Z,76.38
2023-02-02T03:05:49.369Z,76.38
2023-02-02T03:08:22.175Z,76.55
2023-02-02T03:10:46.811Z,76.61
2023-02-02T03:13:11.117Z,76.51
2023-02-02T03:15:32.903Z,76.42
2023-02-02T03:17:54.920Z,76.72
2023-02-02T03:20:17.230Z,76.71
2023-02-02T03:22:38.918Z,76.84
2023-02-02T03:25:00.545Z,76.65
2023-02-02T03:27:22.224Z,76.69
2023-02-02T03:29:43.855Z,76.80
2023-02-02T03:32:05.633Z,76.99
2023-02-02T03:34:27.211Z,76.85
2023-02-02T03:36:48.768Z,76.82
2023-02-02T03:39:10.476Z,76.88
2023-02-02T03:41:32.078Z,77.03
2023-02-02T03:43:53.685Z,76.89
2023-02-02T03:46:15.371Z,77.27
2023-02-02T03:48:38.799Z,77.38
2023-02-02T03:51:00.383Z,77.31
2023-02-02T03:53:23.207Z,77.18
2023-02-02T03:55:44.808Z,77.25
2023-02-02T03:58:06.424Z,76.89
2023-02-02T04:00:28.050Z,77.17
2023-02-02T04:02:49.743Z,76.74
2023-02-02T04:05:11.424Z,76.72
2023-02-02T04:07:33.205Z,77.07
2023-02-02T04:09:54.776Z,76.75
2023-02-02T04:12:16.403Z,76.68
2023-02-02T04:14:38.058Z,76.93
2023-02-02T04:16:59.703Z,76.91
2023-02-02T04:19:21.351Z,76.99
2023-02-02T04:21:43.105Z,76.59
2023-02-02T04:24:07.193Z,76.67
2023-02-02T04:26:28.935Z,76.70
2023-02-02T04:28:50.595Z,76.38
2023-02-02T04:31:12.387Z,76.39
2023-02-02T04:33:35.395Z,76.41
2023-02-02T04:35:57.181Z,76.37
2023-02-02T04:38:19.074Z,76.72
2023-02-02T04:40:43.366Z,76.85
2023-02-02T04:43:04.977Z,76.89
2023-02-02T04:45:26.986Z,76.57
2023-02-02T04:47:48.839Z,76.98
2023-02-02T04:50:12.134Z,76.49
2023-02-02T04:52:33.906Z,76.89
2023-02-02T04:54:55.552Z,76.69
2023-02-02T04:57:17.701Z,76.66
2023-02-02T04:59:42.200Z,76.94
2023-02-02T05:02:04.032Z,76.90
2023-02-02T05:04:25.860Z,77.40
2023-02-02T05:06:47.485Z,76.74
2023-02-02T05:09:09.345Z,76.75
2023-02-02T05:11:31.098Z,76.82
2023-02-02T05:13:55.038Z,77.07
2023-02-02T05:16:17.100Z,76.94
2023-02-02T05:18:38.868Z,77.06
2023-02-02T05:21:02.838Z,77.23
2023-02-02T05:23:24.422Z,77.08
2023-02-02T05:25:53.691Z,77.09
2023-02-02T05:28:15.277Z,77.09
2023-02-02T05:30:40.485Z,77.18
2023-02-02T05:33:02.249Z,76.68
2023-02-02T05:35:24.915Z,76.78
2023-02-02T05:37:46.675Z,76.77
2023-02-02T05:40:10.045Z,77.03
2023-02-02T05:42:31.646Z,76.48
2023-02-02T05:44:53.264Z,76.56
2023-02-02T05:47:14.987Z,76.47
2023-02-02T05:49:36.620Z,76.93
2023-02-02T05:51:59.160Z,76.55
2023-02-02T05:54:21.159Z,76.57
2023-02-02T05:56:42.792Z,76.30
2023-02-02T05:59:07.418Z,76.32
2023-02-02T06:01:29.224Z,76.26
2023-02-02T06:03:51.028Z,76.23
2023-02-02T06:06:13.100Z,76.69
2023-02-02T06:08:35.841Z,76.50
2023-02-02T06:10:57.452Z,76.59
2023-02-02T06:13:19.150Z,76.54
2023-02-02T06:15:43.102Z,76.50
2023-02-02T06:18:06.842Z,76.35
2023-02-02T06:20:29.472Z,76.39
2023-02-02T06:22:51.700Z,76.77
2023-02-02T06:25:13.303Z,76.69
2023-02-02T06:27:34.971Z,76.79
2023-02-02T06:29:56.585Z,76.38
2023-02-02T06:32:18.214Z,76.46
2023-02-02T06:34:39.782Z,76.55
2023-02-02T06:37:01.536Z,76.62
2023-02-02T06:39:23.135Z,76.67
2023-02-02T06:41:46.656Z,76.54
2023-02-02T06:44:08.522Z,76.93
2023-02-02T06:46:30.268Z,76.55
2023-02-02T06:48:51.976Z,76.38
2023-02-02T06:51:14.039Z,76.84
2023-02-02T06:53:35.703Z,76.59
2023-02-02T06:56:06.535Z,76.62
2023-02-02T06:58:30.565Z,76.46
2023-02-02T07:00:52.549Z,76.81
2023-02-02T07:03:16.569Z,76.77
2023-02-02T07:05:39.317Z,76.79
2023-02-02T07:08:00.894Z,76.92
2023-02-02T07:11:08.458Z,76.93
2023-02-02T07:13:05.999Z,77.19
2023-02-02T07:15:27.689Z,77.44
2023-02-02T07:17:49.259Z,77.13
2023-02-02T07:20:11.514Z,77.45
2023-02-02T07:22:33.089Z,77.34
2023-02-02T07:24:54.650Z,77.92
2023-02-02T07:27:16.434Z,78.23
2023-02-02T07:29:38.086Z,77.82
2023-02-02T07:31:59.727Z,78.10
2023-02-02T07:34:21.583Z,78.60
2023-02-02T07:36:43.369Z,78.47
2023-02-02T07:39:06.030Z,78.39
2023-02-02T07:41:27.936Z,78.61
2023-02-02T07:43:51.218Z,78.76
2023-02-02T07:46:14.318Z,79.06
2023-02-02T07:48:37.040Z,78.73
2023-02-02T07:51:04.263Z,79.14
2023-02-02T07:53:27.109Z,79.25
2023-02-02T07:55:48.702Z,79.30
2023-02-02T07:58:10.870Z,79.45
2023-02-02T08:00:32.711Z,79.20
2023-02-02T08:02:54.460Z,79.22
2023-02-02T08:05:16.545Z,79.47
2023-02-02T08:07:38.364Z,79.44
2023-02-02T08:10:00.112Z,79.21
2023-02-02T08:12:24.828Z,79.73
2023-02-02T08:14:47.496Z,79.68
2023-02-02T08:17:09.317Z,79.38
2023-02-02T08:19:30.947Z,79.38
2023-02-02T08:21:52.491Z,79.22
2023-02-02T08:24:14.141Z,79.27
2023-02-02T08:26:35.919Z,79.38
2023-02-02T08:29:03.088Z,79.19
2023-02-02T08:31:32.877Z,79.09
2023-02-02T08:33:55.007Z,78.77
2023-02-02T08:36:20.402Z,78.86
2023-02-02T08:38:42.821Z,78.59
2023-02-02T08:41:10.425Z,78.35
2023-02-02T08:43:32.114Z,78.65
2023-02-02T08:46:01.094Z,78.49
2023-02-02T08:48:26.869Z,78.12
2023-02-02T08:50:57.872Z,77.62
2023-02-02T08:53:19.543Z,77.83
2023-02-02T08:55:41.259Z,77.94
2023-02-02T08:58:02.947Z,77.90
2023-02-02T09:00:24.618Z,77.52
2023-02-02T09:02:51.001Z,77.54
2023-02-02T09:05:12.589Z,77.39
2023-02-02T09:07:34.275Z,77.48
2023-02-02T09:09:58.165Z,77.19
2023-02-02T09:12:19.834Z,77.07
2023-02-02T09:14:41.437Z,77.10
2023-02-02T09:17:03.135Z,76.76
2023-02-02T09:19:24.792Z,76.80
2023-02-02T09:21:46.410Z,76.88
2023-02-02T09:24:11.701Z,76.73
2023-02-02T09:26:33.580Z,76.82
2023-02-02T09:28:59.371Z,76.49
2023-02-02T09:31:21.552Z,76.41
2023-02-02T09:33:43.909Z,76.05
2023-02-02T09:36:08.895Z,76.00
2023-02-02T09:38:30.622Z,75.99
2023-02-02T09:40:52.294Z,76.02
2023-02-02T09:44:20.074Z,75.84
2023-02-02T09:47:18.833Z,75.80
2023-02-02T09:50:03.109Z,75.40
2023-02-02T09:52:33.868Z,75.32
2023-02-02T09:55:07.008Z,75.43
2023-02-02T09:57:39.165Z,75.24
2023-02-02T10:00:00.901Z,74.74
2023-02-02T10:02:30.145Z,75.06
2023-02-02T10:05:00.884Z,74.80
2023-02-02T10:07:37.229Z,75.06
2023-02-02T10:10:23.657Z,74.79
2023-02-02T10:13:06.899Z,74.81
2023-02-02T10:16:01.564Z,74.69
2023-02-02T10:18:38.687Z,74.71
2023-02-02T10:21:32.385Z,74.69
2023-02-02T10:23:54.676Z,74.83
2023-02-02T10:26:39.848Z,74.82
2023-02-02T10:29:28.069Z,75.08
2023-02-02T10:32:24.782Z,75.30
2023-02-02T10:35:30.450Z,75.41
2023-02-02T10:38:24.856Z,75.64
2023-02-02T10:41:06.774Z,75.64
2023-02-02T10:43:47.120Z,76.03
2023-02-02T10:46:17.733Z,75.72
2023-02-02T10:48:48.157Z,75.75
2023-02-02T10:51:24.420Z,75.71
2023-02-02T10:53:53.301Z,75.49
2023-02-02T10:56:16.897Z,75.38
2023-02-02T10:58:58.848Z,75.40
2023-02-02T11:01:22.870Z,75.40
2023-02-02T11:03:44.799Z,75.26
2023-02-02T11:06:27.142Z,74.81
2023-02-02T11:09:01.180Z,75.00
2023-02-02T11:11:32.969Z,74.99
2023-02-02T11:14:04.457Z,74.85
2023-02-02T11:16:42.082Z,74.80
2023-02-02T11:19:16.813Z,74.83
2023-02-02T11:21:39.512Z,74.61
2023-02-02T11:24:19.301Z,74.59
2023-02-02T11:26:52.741Z,74.72
2023-02-02T11:29:40.931Z,74.44
2023-02-02T11:32:28.836Z,74.57
2023-02-02T11:35:13.896Z,74.60
2023-02-02T11:37:38.249Z,74.68
2023-02-02T11:40:31.181Z,74.39
2023-02-02T11:42:53.043Z,74.53
2023-02-02T11:45:30.610Z,74.21
2023-02-02T11:47:52.659Z,74.29
2023-02-02T11:50:27.624Z,74.25
2023-02-02T11:52:49.556Z,73.57
2023-02-02T11:55:21.176Z,73.93
2023-02-02T11:58:24.817Z,73.78
2023-02-02T12:00:52.038Z,73.66
2023-02-02T12:03:39.960Z,73.68
2023-02-02T12:06:18.798Z,73.36
2023-02-02T12:08:40.499Z,73.58
2023-02-02T12:11:07.186Z,73.49
2023-02-02T12:14:12.180Z,73.15
2023-02-02T12:16:53.385Z,73.14
2023-02-02T12:19:39.817Z,73.32
2023-02-02T12:22:33.566Z,73.13
2023-02-02T12:25:39.807Z,73.19
2023-02-02T12:28:22.797Z,73.01
2023-02-02T12:31:08.077Z,73.23
2023-02-02T12:34:08.611Z,73.31
2023-02-02T12:37:17.599Z,73.38
2023-02-02T12:40:38.557Z,73.35
2023-02-02T12:43:23.496Z,73.61
2023-02-02T12:46:12.945Z,73.29
2023-02-02T12:49:02.680Z,73.22
2023-02-02T12:51:37.736Z,73.41
2023-02-02T12:54:34.266Z,73.52
2023-02-02T12:57:19.085Z,73.28
2023-02-02T13:00:16.324Z,73.45
2023-02-02T13:02:59.900Z,73.53
2023-02-02T13:09:22.494Z,73.59
2023-02-02T13:12:02.489Z,73.59
2023-02-02T13:14:41.681Z,73.92
2023-02-02T13:17:38.956Z,73.94
2023-02-02T13:20:18.354Z,74.34
2023-02-02T13:22:44.390Z,74.85
2023-02-02T13:25:19.247Z,75.39
2023-02-02T13:27:42.162Z,75.73
2023-02-02T13:30:18.774Z,76.31
2023-02-02T13:32:46.204Z,76.68
2023-02-02T13:35:36.893Z,77.11
2023-02-02T13:38:26.630Z,77.36
2023-02-02T13:40:50.995Z,77.74
2023-02-02T13:43:24.858Z,78.22
2023-02-02T13:46:46.370Z,78.98
2023-02-02T13:49:23.609Z,79.01
2023-02-02T13:51:50.504Z,79.58
2023-02-02T13:54:51.722Z,79.54
2023-02-02T13:57:13.187Z,79.68
2023-02-02T14:00:21.849Z,79.67
2023-02-02T14:03:02.656Z,79.58
2023-02-02T14:05:30.885Z,79.28
2023-02-02T14:08:07.165Z,79.42
2023-02-02T14:10:56.345Z,79.32
2023-02-02T14:13:49.784Z,79.36
2023-02-02T14:16:45.602Z,79.11
2023-02-02T14:19:34.978Z,79.50
2023-02-02T14:22:08.677Z,79.67
2023-02-02T14:24:36.244Z,79.96
2023-02-02T14:27:22.285Z,79.95
2023-02-02T14:29:47.234Z,80.33
2023-02-02T14:32:29.952Z,80.71
2023-02-02T14:34:55.860Z,81.03
2023-02-02T14:37:32.004Z,81.03
2023-02-02T14:40:12.448Z,81.20
2023-02-02T14:43:40.319Z,81.26
2023-02-02T14:46:14.015Z,81.41
2023-02-02T14:48:38.965Z,81.45
2023-02-02T14:51:02.739Z,81.99
2023-02-02T14:53:37.640Z,82.12
2023-02-02T14:56:09.543Z,82.42
2023-02-02T14:58:38.783Z,82.83
2023-02-02T15:01:24.554Z,82.95
2023-02-02T15:03:55.623Z,83.11
2023-02-02T15:06:42.089Z,83.56
2023-02-02T15:09:28.247Z,83.95
2023-02-02T15:12:00.850Z,84.24
2023-02-02T15:14:30.885Z,84.53
2023-02-02T15:16:55.050Z,84.96
2023-02-02T15:19:38.745Z,85.03
2023-02-02T15:22:29.964Z,85.25
2023-02-02T15:24:54.272Z,85.32
2023-02-02T15:27:22.750Z,85.88
2023-02-02T15:29:52.648Z,85.84
2023-02-02T15:32:24.242Z,85.65
2023-02-02T15:44:01.190Z,86.98
2023-02-02T15:46:32.544Z,86.93
2023-02-02T15:49:33.218Z,87.03
2023-02-02T15:52:01.377Z,87.13
2023-02-02T15:54:32.943Z,87.42
2023-02-02T15:56:58.429Z,87.35
2023-02-02T15:59:25.908Z,87.34
2023-02-02T16:01:53.197Z,87.13
2023-02-02T16:04:26.504Z,87.49
2023-02-02T16:06:50.244Z,87.16
2023-02-02T16:09:34.152Z,87.24
2023-02-02T16:11:55.893Z,87.67
2023-02-02T16:14:18.053Z,87.93
2023-02-02T16:16:40.695Z,87.96
2023-02-02T16:19:06.301Z,88.40
2023-02-02T16:21:29.904Z,88.39
2023-02-02T16:23:52.862Z,88.45
2023-02-02T16:26:17.159Z,88.55
2023-02-02T16:28:40.631Z,88.82
2023-02-02T16:31:03.306Z,88.79
2023-02-02T16:33:42.780Z,89.14
2023-02-02T16:36:24.449Z,88.97
2023-02-02T16:38:47.090Z,88.80
2023-02-02T16:41:28.003Z,88.77
2023-02-02T16:43:49.721Z,89.13
2023-02-02T16:46:15.243Z,89.36
2023-02-02T16:48:42.545Z,89.30
2023-02-02T16:51:16.190Z,89.14
2023-02-02T16:53:38.293Z,89.62
2023-02-02T16:55:59.955Z,89.56
2023-02-02T16:58:24.917Z,89.99
2023-02-02T17:01:16.658Z,89.66
2023-02-02T17:03:49.474Z,90.14
2023-02-02T17:06:11.568Z,89.98
2023-02-02T17:08:39.200Z,89.78
2023-02-02T17:11:23.791Z,89.97
2023-02-02T17:13:45.683Z,89.78
2023-02-02T17:16:13.809Z,89.82
2023-02-02T17:18:35.407Z,89.82
2023-02-02T17:21:04.131Z,89.75
2023-02-02T17:23:28.780Z,89.69
2023-02-02T17:25:50.606Z,89.79
2023-02-02T17:28:18.076Z,89.88
2023-02-02T17:30:42.320Z,89.67
2023-02-02T17:33:03.904Z,89.41
2023-02-02T17:35:32.627Z,89.57
2023-02-02T17:37:58.766Z,89.41
2023-02-02T17:40:23.827Z,89.35
2023-02-02T17:42:50.667Z,89.28
2023-02-02T17:45:23.332Z,89.36
2023-02-02T17:47:45.212Z,88.95
2023-02-02T17:50:07.049Z,89.30
2023-02-02T17:52:28.588Z,89.04
2023-02-02T17:54:50.151Z,88.98
2023-02-02T17:57:11.841Z,88.58
2023-02-02T17:59:33.446Z,88.55
2023-02-02T18:01:55.623Z,88.69
2023-02-02T18:04:17.395Z,88.76
2023-02-02T18:06:39.990Z,88.78
2023-02-02T18:09:01.737Z,88.23
2023-02-02T18:11:23.370Z,88.53
2023-02-02T18:13:45.110Z,88.40
2023-02-02T18:16:07.329Z,88.33
2023-02-02T18:18:29.824Z,88.12
2023-02-02T18:20:51.745Z,88.24
2023-02-02T18:23:15.200Z,88.09
2023-02-02T18:25:37.722Z,88.06
2023-02-02T18:28:00.553Z,88.08
2023-02-02T18:30:22.066Z,87.56
2023-02-02T18:32:43.691Z,87.69
2023-02-02T18:35:08.260Z,87.33
2023-02-02T18:37:29.802Z,87.33
2023-02-02T18:39:52.562Z,87.18
2023-02-02T18:42:14.619Z,86.99
2023-02-02T18:44:38.428Z,87.34
2023-02-02T18:46:59.973Z,87.12
2023-02-02T18:49:21.684Z,87.40
2023-02-02T18:51:43.620Z,87.17
2023-02-02T18:54:05.194Z,87.56
2023-02-02T18:56:29.153Z,87.15
2023-02-02T18:58:51.412Z,87.45
2023-02-02T19:01:17.749Z,86.96
2023-02-02T19:03:40.815Z,86.94
2023-02-02T19:06:23.691Z,87.28
2023-02-02T19:08:45.299Z,87.17
2023-02-02T19:11:19.529Z,87.37
2023-02-02T19:13:41.326Z,86.67
2023-02-02T19:16:14.161Z,86.48
2023-02-02T19:18:36.613Z,86.88
2023-02-02T19:20:58.190Z,86.65
2023-02-02T19:23:23.670Z,86.72
2023-02-02T19:25:54.079Z,86.54
2023-02-02T19:28:31.217Z,86.63
2023-02-02T19:30:56.477Z,86.45
2023-02-02T19:33:19.628Z,86.38
2023-02-02T19:35:46.513Z,86.19
2023-02-02T19:38:13.927Z,86.34
2023-02-02T19:40:35.983Z,86.42
2023-02-02T19:43:10.597Z,86.07
2023-02-02T19:45:34.487Z,86.04
2023-02-02T19:48:00.191Z,85.73
2023-02-02T19:50:27.658Z,85.96
2023-02-02T19:52:50.881Z,85.50
2023-02-02T19:55:22.921Z,85.26
2023-02-02T19:57:44.661Z,85.03
2023-02-02T20:00:24.389Z,85.41
2023-02-02T20:03:35.175Z,84.93
2023-02-02T20:05:57.878Z,84.86
2023-02-02T20:08:35.644Z,85.00
2023-02-02T20:11:23.916Z,84.75
2023-02-02T20:13:48.327Z,85.12
2023-02-02T20:16:20.617Z,84.72
2023-02-02T20:18:48.542Z,84.62
2023-02-02T20:21:22.478Z,84.55
2023-02-02T20:23:46.091Z,84.72
2023-02-02T20:26:36.171Z,84.62
2023-02-02T20:29:03.230Z,84.84
2023-02-02T20:31:36.820Z,84.89
2023-02-02T20:33:58.547Z,85.06
2023-02-02T20:36:38.737Z,84.79
2023-02-02T20:39:26.357Z,84.98
2023-02-02T20:41:48.262Z,85.09
2023-02-02T20:44:11.010Z,84.91
2023-02-02T20:46:32.636Z,85.06
2023-02-02T20:48:54.279Z,85.17
2023-02-02T20:51:15.894Z,84.94
2023-02-02T20:53:39.300Z,84.85
2023-02-02T20:56:02.685Z,84.76
2023-02-02T20:58:25.206Z,84.64
2023-02-02T21:00:46.829Z,84.82
2023-02-02T21:03:08.612Z,84.96
2023-02-02T21:05:31.030Z,84.44
2023-02-02T21:07:54.925Z,84.27
2023-02-02T21:10:16.635Z,84.18
2023-02-02T21:12:38.285Z,84.06
2023-02-02T21:15:01.537Z,83.77
2023-02-02T21:17:23.193Z,83.71
2023-02-02T21:19:45.208Z,83.74
2023-02-02T21:22:06.858Z,83.52
2023-02-02T21:24:28.520Z,83.33
2023-02-02T21:26:52.435Z,83.43
2023-02-02T21:29:14.157Z,83.34
2023-02-02T21:31:40.090Z,83.31
2023-02-02T21:34:02.583Z,83.44
2023-02-02T21:36:46.495Z,83.18
2023-02-02T21:39:23.252Z,83.07
2023-02-02T21:41:45.448Z,83.08
2023-02-02T21:44:17.904Z,82.83
2023-02-02T21:46:40.361Z,83.29
2023-02-02T21:49:03.628Z,83.03
2023-02-02T21:51:33.889Z,83.17
2023-02-02T21:53:58.111Z,83.13
2023-02-02T21:56:33.957Z,82.62
2023-02-02T21:59:00.745Z,82.83
2023-02-02T22:01:32.869Z,82.56
2023-02-02T22:03:54.959Z,82.52
2023-02-02T22:06:36.694Z,82.34
2023-02-02T22:09:25.664Z,82.48
2023-02-02T22:11:58.434Z,82.35
2023-02-02T22:14:37.093Z,82.24
2023-02-02T22:16:59.568Z,82.09
2023-02-02T22:19:28.787Z,82.13
2023-02-02T22:21:50.497Z,82.23
2023-02-02T22:24:12.832Z,82.22
2023-02-02T22:26:34.488Z,81.98
2023-02-02T22:28:56.484Z,81.93
2023-02-02T22:31:18.023Z,82.03
2023-02-02T22:33:39.648Z,81.68
2023-02-02T22:36:01.283Z,81.78
2023-02-02T22:38:25.143Z,81.76
2023-02-02T22:40:48.320Z,81.35
2023-02-02T22:43:10.012Z,81.67
2023-02-02T22:45:32.600Z,81.78
2023-02-02T22:47:54.787Z,81.65
2023-02-02T22:50:20.842Z,81.66
2023-02-02T22:52:43.328Z,81.39
2023-02-02T22:55:05.336Z,81.62
2023-02-02T22:57:26.975Z,81.73
2023-02-02T22:59:48.511Z,81.63
2023-02-02T23:02:10.016Z,81.41
2023-02-02T23:04:31.545Z,81.54
2023-02-02T23:06:53.062Z,81.50
2023-02-02T23:09:14.644Z,81.12
2023-02-02T23:11:36.249Z,81.60
2023-02-02T23:13:57.808Z,81.51
2023-02-02T23:16:19.527Z,81.35
2023-02-02T23:18:41.195Z,81.57
2023-02-02T23:21:02.788Z,81.65
2023-02-02T23:23:25.187Z,81.40
2023-02-02T23:25:46.740Z,81.32
2023-02-02T23:28:10.395Z,81.45
2023-02-02T23:30:32.107Z,81.65
2023-02-02T23:32:53.754Z,81.61
2023-02-02T23:35:15.781Z,81.55
2023-02-02T23:37:37.703Z,81.58
2023-02-02T23:39:59.384Z,81.53
2023-02-02T23:42:20.961Z,81.57
2023-02-02T23:44:42.768Z,81.30
2023-02-02T23:47:04.994Z,81.32
2023-02-02T23:49:26.627Z,81.47
2023-02-02T23:51:48.429Z,81.36
2023-02-02T23:54:12.859Z,81.46
2023-02-02T23:56:34.400Z,81.63
2023-02-02T23:58:55.989Z,81.86
